Gregorytown, New York
Current Conditions -  °F | °C
As of 8:35 PM on Thursday 18 Dec 2014 (Local Time) from KMSV Reporting Station
Overcast Overcast  
Wind Chill: -7°   Ceiling: 1900
Heat Index: -1°   Visibility: 10mi
Dew Point: -4°   Wind: 16mph
Humidity: 80%   Direction: 310°NW
Pressure: 29.93"   Gusts: 25mph
Location:  42.0755°N, 75.0491°W
Report Text: KMSV 190135Z AUTO 31014G22KT 10SM OVC019 M01/M04 A2993 RMK AO1
Loading
Personal Weather Stations






























Interactive Weather Map New forecast layout! Learn more

10-Day Weather Forecast

Advertisements
Track Severe Weather on mobile